Time;durP1;ratioP1;P1;durP2;ratioP2;P2;SDS_P1;SDS_P2;PMS_P1;PMS_P2;Temp;Humidity;BMP_temperature;BMP_pressure;BME280_temperature;BME280_humidity;BME280_pressure;Samples;Min_cycle;Max_cycle;Signal;HPM_P1;HPM_P2
2021/03/13 00:01:56;;;;;;;8.00;3.07;;;9.30;80.10;;;;;;8403269;28;20529;-72
2021/03/13 00:05:57;;;;;;;8.33;3.20;;;9.30;80.00;;;;;;8376511;28;20188;-72
2021/03/13 00:10:02;;;;;;;5.93;2.97;;;9.40;80.70;;;;;;8361023;28;20204;-72
2021/03/13 00:14:02;;;;;;;6.43;3.47;;;9.40;82.00;;;;;;8368599;28;20444;-72
2021/03/13 00:18:04;;;;;;;9.53;4.10;;;9.30;82.40;;;;;;8368430;28;20447;-72
2021/03/13 00:22:07;;;;;;;8.30;4.27;;;9.10;83.10;;;;;;8365225;28;20211;-71
2021/03/13 00:26:11;;;;;;;11.23;3.63;;;9.10;83.40;;;;;;8374549;28;20480;-72
2021/03/13 00:30:28;;;;;;;6.83;3.70;;;9.00;83.50;;;;;;8369845;28;20444;-72
2021/03/13 00:34:28;;;;;;;4.53;2.97;;;9.00;83.80;;;;;;8362610;28;21021;-72
2021/03/13 00:38:37;;;;;;;3.03;2.40;;;9.00;83.70;;;;;;8402867;28;20949;-72
2021/03/13 00:42:37;;;;;;;3.70;3.20;;;9.10;83.30;;;;;;8375120;28;20300;-71
2021/03/13 00:46:41;;;;;;;4.80;2.83;;;9.10;83.20;;;;;;8373170;28;20444;-72
2021/03/13 00:50:49;;;;;;;2.73;2.57;;;9.10;82.90;;;;;;8402700;28;20195;-72
2021/03/13 00:54:51;;;;;;;3.00;2.67;;;9.20;83.00;;;;;;8375374;28;20445;-72
2021/03/13 00:58:52;;;;;;;2.20;2.10;;;9.20;82.30;;;;;;8396679;28;20450;-72
2021/03/13 01:02:53;;;;;;;2.80;2.43;;;9.30;81.80;;;;;;8375512;28;20481;-73
2021/03/13 01:06:54;;;;;;;6.80;4.33;;;9.40;81.60;;;;;;8381570;28;21042;-72
2021/03/13 01:10:56;;;;;;;9.03;2.13;;;9.40;81.20;;;;;;8373998;28;20500;-72
2021/03/13 01:14:56;;;;;;;3.90;1.50;;;9.40;81.20;;;;;;8360381;28;20238;-71
2021/03/13 01:19:00;;;;;;;2.70;1.83;;;9.50;81.60;;;;;;8382133;28;20451;-70
2021/03/13 01:23:01;;;;;;;3.13;2.93;;;9.50;80.90;;;;;;8383881;28;20561;-72
2021/03/13 01:27:09;;;;;;;2.60;1.17;;;9.50;80.80;;;;;;8375758;28;20844;-72
2021/03/13 01:31:12;;;;;;;4.63;1.30;;;9.50;80.40;;;;;;8381919;28;20205;-73
2021/03/13 01:35:13;;;;;;;1.53;1.43;;;9.50;79.80;;;;;;8365535;28;20451;-72
2021/03/13 01:39:13;;;;;;;1.20;1.10;;;9.50;79.50;;;;;;8373641;28;20449;-73
2021/03/13 01:43:18;;;;;;;1.30;1.20;;;9.40;79.50;;;;;;8383995;28;20470;-72
2021/03/13 01:47:24;;;;;;;0.90;0.90;;;9.40;80.00;;;;;;8366237;28;21036;-72
2021/03/13 01:51:27;;;;;;;1.13;1.03;;;9.40;80.00;;;;;;8374521;28;20447;-73
2021/03/13 01:55:28;;;;;;;1.43;1.10;;;9.40;80.50;;;;;;8366622;28;20462;-73
2021/03/13 01:59:33;;;;;;;1.93;1.20;;;9.40;80.90;;;;;;8366533;28;20569;-73
2021/03/13 02:03:37;;;;;;;2.43;1.10;;;9.40;81.00;;;;;;8355504;28;20278;-72
2021/03/13 02:08:00;;;;;;;1.23;1.00;;;9.30;81.30;;;;;;8370123;28;20451;-72
2021/03/13 02:12:29;;;;;;;1.07;1.00;;;9.30;81.70;;;;;;8389533;28;20445;-72
2021/03/13 02:16:59;;;;;;;1.43;1.33;;;9.30;82.30;;;;;;8396213;28;20502;-72
2021/03/13 02:21:10;;;;;;;1.50;1.40;;;9.30;82.40;;;;;;8383954;28;20493;-73
2021/03/13 02:25:14;;;;;;;1.53;1.43;;;9.30;83.00;;;;;;8372917;28;20477;-72
2021/03/13 02:29:15;;;;;;;2.20;1.00;;;9.30;83.50;;;;;;8374918;28;20449;-72
2021/03/13 02:33:24;;;;;;;2.00;1.33;;;9.30;84.10;;;;;;8370070;28;20442;-72
2021/03/13 02:37:32;;;;;;;1.20;1.00;;;9.20;84.30;;;;;;8363239;28;20192;-71
2021/03/13 02:41:41;;;;;;;1.13;1.13;;;9.20;84.70;;;;;;8355752;28;20437;-72
2021/03/13 02:45:46;;;;;;;2.43;1.50;;;9.10;84.80;;;;;;8365973;28;20489;-72
2021/03/13 02:49:50;;;;;;;1.07;0.97;;;9.10;84.90;;;;;;8376384;28;20545;-72
2021/03/13 02:53:53;;;;;;;1.03;1.03;;;9.10;84.90;;;;;;8366489;28;20506;-74
2021/03/13 02:57:59;;;;;;;4.20;0.87;;;9.10;84.70;;;;;;8366457;28;20446;-72
2021/03/13 03:02:02;;;;;;;3.07;1.00;;;9.20;84.40;;;;;;8370276;28;20464;-73
2021/03/13 03:06:05;;;;;;;4.40;0.77;;;9.30;84.10;;;;;;8356931;28;20849;-72
2021/03/13 03:10:08;;;;;;;1.73;1.00;;;9.30;84.00;;;;;;8377765;28;20452;-72
2021/03/13 03:14:11;;;;;;;1.77;0.70;;;9.30;84.10;;;;;;8357487;28;20542;-72
2021/03/13 03:18:17;;;;;;;1.20;1.10;;;9.40;83.90;;;;;;8366080;28;20858;-72
2021/03/13 03:22:22;;;;;;;0.80;0.80;;;9.30;83.80;;;;;;8357141;28;20476;-72
2021/03/13 03:26:22;;;;;;;0.97;0.70;;;9.40;83.70;;;;;;8360905;28;20496;-73
2021/03/13 03:30:29;;;;;;;1.17;0.70;;;9.40;83.70;;;;;;8365425;28;20438;-72
2021/03/13 03:34:34;;;;;;;0.70;0.70;;;9.30;83.90;;;;;;8364559;28;20631;-72
2021/03/13 03:38:35;;;;;;;0.70;0.70;;;9.40;83.70;;;;;;8360388;28;20455;-72
2021/03/13 03:42:46;;;;;;;1.00;0.70;;;9.40;83.70;;;;;;8370907;28;20504;-72
2021/03/13 03:46:49;;;;;;;1.20;0.73;;;9.40;83.60;;;;;;8383411;28;20540;-72
2021/03/13 03:50:50;;;;;;;0.80;0.80;;;9.40;83.50;;;;;;8366586;28;20435;-73
2021/03/13 03:54:52;;;;;;;0.90;0.90;;;9.40;83.70;;;;;;8364424;28;20455;-72
2021/03/13 03:58:54;;;;;;;1.17;1.07;;;9.50;83.70;;;;;;8358392;28;20540;-72
2021/03/13 04:02:57;;;;;;;0.80;0.80;;;9.50;84.00;;;;;;8370641;28;20463;-72
2021/03/13 04:06:58;;;;;;;0.80;0.80;;;9.60;84.10;;;;;;8365042;28;20454;-72
2021/03/13 04:11:00;;;;;;;2.27;0.90;;;9.70;84.40;;;;;;8363099;28;20551;-71
2021/03/13 04:15:01;;;;;;;4.30;2.10;;;9.70;84.80;;;;;;8366830;28;20448;-71
2021/03/13 04:19:03;;;;;;;3.10;2.00;;;9.70;85.20;;;;;;8367390;28;20488;-72
2021/03/13 04:23:12;;;;;;;1.37;1.27;;;9.70;85.60;;;;;;8368481;28;20488;-72
2021/03/13 04:27:16;;;;;;;1.50;1.10;;;9.70;85.70;;;;;;8357881;28;20531;-71
2021/03/13 04:31:20;;;;;;;1.10;1.10;;;9.70;85.90;;;;;;8357857;28;20917;-71
2021/03/13 04:35:21;;;;;;;2.50;1.10;;;9.70;86.30;;;;;;8365727;28;20469;-71
2021/03/13 04:39:26;;;;;;;2.20;1.13;;;9.70;86.50;;;;;;8359798;28;20975;-72
2021/03/13 04:43:27;;;;;;;0.83;0.80;;;9.70;86.30;;;;;;8363000;28;20466;-72
2021/03/13 04:47:28;;;;;;;0.90;0.80;;;9.80;86.70;;;;;;8363519;28;20446;-72
2021/03/13 04:51:32;;;;;;;1.20;1.10;;;9.80;86.80;;;;;;8351039;28;20458;-72
2021/03/13 04:55:33;;;;;;;2.00;1.00;;;9.80;86.80;;;;;;8364886;28;20500;-71
2021/03/13 04:59:34;;;;;;;2.10;0.90;;;9.80;86.90;;;;;;8361236;28;20444;-72
2021/03/13 05:03:35;;;;;;;1.07;0.83;;;9.80;86.90;;;;;;8331779;28;20829;-71
2021/03/13 05:07:39;;;;;;;1.47;0.93;;;9.90;86.30;;;;;;8366533;28;20472;-71
2021/03/13 05:11:44;;;;;;;2.10;0.80;;;10.00;86.20;;;;;;8372271;28;20448;-71
2021/03/13 05:15:48;;;;;;;5.33;1.90;;;10.00;85.60;;;;;;8366871;28;20239;-72
2021/03/13 05:19:56;;;;;;;2.80;0.70;;;10.10;85.60;;;;;;8381436;28;20440;-72
2021/03/13 05:24:00;;;;;;;1.47;1.27;;;10.20;85.50;;;;;;8363248;28;20482;-72
2021/03/13 05:28:05;;;;;;;0.97;0.87;;;10.20;85.40;;;;;;8370274;28;20524;-72
2021/03/13 05:32:11;;;;;;;1.63;1.07;;;10.20;85.20;;;;;;8367078;28;20529;-73
2021/03/13 05:36:15;;;;;;;1.27;0.97;;;10.20;85.40;;;;;;8376539;28;20203;-73
2021/03/13 05:40:16;;;;;;;3.27;1.20;;;10.20;85.20;;;;;;8368869;28;20517;-72
2021/03/13 05:44:18;;;;;;;1.83;1.00;;;10.20;86.20;;;;;;8372786;28;20494;-72
2021/03/13 05:48:21;;;;;;;2.63;1.27;;;10.10;86.80;;;;;;8370803;28;20434;-73
2021/03/13 05:52:23;;;;;;;2.33;1.17;;;10.10;86.10;;;;;;8377095;28;20458;-73
2021/03/13 05:56:28;;;;;;;6.00;1.10;;;10.10;86.60;;;;;;8376489;28;20466;-73
2021/03/13 06:00:32;;;;;;;6.33;1.20;;;10.10;86.50;;;;;;8380616;28;20812;-73
2021/03/13 06:04:36;;;;;;;1.87;0.90;;;10.10;86.80;;;;;;8380674;28;20467;-73
2021/03/13 06:08:38;;;;;;;1.73;1.00;;;10.10;86.70;;;;;;8395003;28;20463;-73
2021/03/13 06:12:39;;;;;;;0.90;0.90;;;10.10;87.10;;;;;;8364714;28;20531;-73
2021/03/13 06:16:41;;;;;;;1.07;0.97;;;10.10;87.30;;;;;;8366084;28;20439;-74
2021/03/13 06:20:41;;;;;;;2.10;1.37;;;10.10;87.00;;;;;;8367224;28;20284;-73
2021/03/13 06:24:46;;;;;;;0.80;0.80;;;10.10;87.30;;;;;;8365621;28;20470;-72
2021/03/13 06:28:47;;;;;;;3.00;0.90;;;10.00;87.70;;;;;;8362670;28;20208;-72
2021/03/13 06:32:51;;;;;;;1.07;0.90;;;10.00;87.40;;;;;;8368361;28;20534;-74
2021/03/13 06:37:27;;;;;;;1.30;0.80;;;10.00;87.70;;;;;;8358635;28;21295;-73
2021/03/13 06:41:28;;;;;;;3.13;1.37;;;9.90;87.40;;;;;;8378214;28;20483;-72
2021/03/13 06:45:36;;;;;;;0.70;0.70;;;9.90;87.30;;;;;;8390533;28;20866;-74
2021/03/13 06:49:37;;;;;;;2.60;0.90;;;10.00;86.60;;;;;;8352253;28;20529;-72
2021/03/13 06:53:40;;;;;;;1.53;0.73;;;10.10;87.10;;;;;;8368178;28;20454;-72
2021/03/13 06:57:42;;;;;;;1.40;1.30;;;10.10;86.20;;;;;;8369642;28;20212;-72
2021/03/13 07:01:43;;;;;;;2.30;0.97;;;10.20;86.60;;;;;;8375589;28;20940;-72
2021/03/13 07:05:45;;;;;;;2.80;1.10;;;10.20;87.10;;;;;;8397859;28;20833;-72
2021/03/13 07:09:52;;;;;;;2.93;1.00;;;10.20;86.50;;;;;;8378760;28;20472;-73
2021/03/13 07:13:55;;;;;;;1.77;0.90;;;10.20;86.40;;;;;;8381700;28;20491;-73
2021/03/13 07:18:00;;;;;;;3.57;0.90;;;10.20;85.90;;;;;;8371235;28;20450;-73
2021/03/13 07:22:01;;;;;;;0.80;0.80;;;10.30;86.00;;;;;;8367873;28;20479;-72
2021/03/13 07:26:04;;;;;;;3.20;0.73;;;10.40;85.60;;;;;;8373725;28;20458;-72
2021/03/13 07:30:16;;;;;;;1.60;0.80;;;10.40;85.90;;;;;;8368444;28;20443;-72
2021/03/13 07:34:28;;;;;;;3.40;0.70;;;10.50;85.60;;;;;;8368463;28;20455;-72
2021/03/13 07:38:37;;;;;;;1.43;0.60;;;10.60;85.30;;;;;;8386707;28;21120;-73
2021/03/13 07:42:38;;;;;;;0.80;0.70;;;10.60;84.90;;;;;;8379143;28;20467;-71
2021/03/13 07:46:41;;;;;;;0.60;0.60;;;10.70;84.60;;;;;;8369246;28;21014;-72
2021/03/13 07:50:46;;;;;;;5.17;0.80;;;10.80;84.30;;;;;;8370051;28;21145;-72
2021/03/13 07:54:49;;;;;;;1.07;0.70;;;10.90;84.80;;;;;;8367785;28;20455;-73
2021/03/13 07:58:52;;;;;;;0.80;0.70;;;11.00;83.80;;;;;;8366597;28;20479;-73
2021/03/13 08:02:57;;;;;;;0.70;0.70;;;11.10;83.30;;;;;;8352439;28;20569;-73
2021/03/13 08:07:01;;;;;;;0.80;0.60;;;11.10;83.70;;;;;;8373402;28;20558;-77
2021/03/13 08:11:05;;;;;;;0.80;0.70;;;10.90;85.40;;;;;;8363668;28;20471;-73
2021/03/13 08:15:29;;;;;;;1.17;0.80;;;10.80;87.60;;;;;;8354760;28;20211;-76
2021/03/13 08:19:43;;;;;;;2.67;0.90;;;10.60;87.60;;;;;;8379099;28;20453;-74
2021/03/13 08:23:58;;;;;;;3.03;1.27;;;10.30;88.80;;;;;;8384982;28;20467;-75
2021/03/13 08:27:59;;;;;;;1.90;0.90;;;10.00;88.90;;;;;;8362216;28;20443;-74
2021/03/13 08:32:09;;;;;;;1.33;0.73;;;9.60;89.20;;;;;;8401617;28;20521;-74
2021/03/13 08:36:27;;;;;;;0.70;0.60;;;9.30;89.20;;;;;;8372618;28;20806;-73
2021/03/13 08:40:29;;;;;;;1.00;1.00;;;9.20;90.50;;;;;;8373142;28;20479;-74
2021/03/13 08:44:32;;;;;;;1.10;0.80;;;9.30;89.20;;;;;;8368732;28;21312;-74
2021/03/13 08:48:58;;;;;;;1.23;0.60;;;9.30;88.00;;;;;;8360703;28;20449;-75
2021/03/13 08:53:35;;;;;;;2.30;0.87;;;9.30;88.70;;;;;;8395843;28;21029;-74
2021/03/13 08:57:42;;;;;;;3.57;1.27;;;9.30;85.10;;;;;;8377171;28;20522;-73
2021/03/13 09:02:04;;;;;;;1.40;0.90;;;9.20;84.60;;;;;;8391107;28;20455;-75
2021/03/13 09:06:05;;;;;;;12.03;1.47;;;9.20;84.80;;;;;;8379230;28;21102;-74
2021/03/13 09:10:12;;;;;;;1.53;0.87;;;9.10;82.60;;;;;;8387154;28;20531;-74
2021/03/13 09:14:14;;;;;;;5.97;1.10;;;9.10;81.70;;;;;;8373450;28;20452;-74
2021/03/13 09:18:15;;;;;;;1.87;1.20;;;9.10;80.50;;;;;;8352770;28;20512;-73
2021/03/13 09:22:26;;;;;;;3.03;1.20;;;9.10;81.60;;;;;;8365634;28;20495;-78
2021/03/13 09:26:27;;;;;;;3.27;1.17;;;9.10;80.30;;;;;;8382379;28;20191;-73
2021/03/13 09:30:38;;;;;;;3.20;1.20;;;9.00;79.50;;;;;;8379531;28;20449;-74
2021/03/13 09:34:46;;;;;;;4.37;1.30;;;9.10;79.60;;;;;;8373420;28;20833;-73
2021/03/13 09:38:58;;;;;;;3.37;1.00;;;9.10;80.30;;;;;;8396125;28;20536;-74
2021/03/13 09:43:02;;;;;;;5.07;1.30;;;9.10;79.70;;;;;;8371271;28;20890;-73
2021/03/13 09:47:30;;;;;;;2.03;1.10;;;9.20;80.50;;;;;;8349153;28;21138;-73
2021/03/13 09:51:31;;;;;;;3.80;2.33;;;9.20;80.30;;;;;;8361026;28;20530;-73
2021/03/13 09:55:33;;;;;;;4.90;1.27;;;9.20;80.50;;;;;;8348794;28;20454;-73
2021/03/13 09:59:36;;;;;;;2.50;1.07;;;9.20;80.20;;;;;;8374223;28;20723;-74
2021/03/13 10:03:39;;;;;;;5.30;1.20;;;9.30;79.80;;;;;;8356081;28;20476;-74
2021/03/13 10:07:49;;;;;;;2.80;0.90;;;9.40;81.10;;;;;;8376771;28;20461;-73
2021/03/13 10:11:51;;;;;;;4.97;1.73;;;9.40;80.00;;;;;;8387597;28;21006;-72
2021/03/13 10:16:01;;;;;;;3.90;1.87;;;9.40;80.30;;;;;;8350706;28;20457;-74
2021/03/13 10:20:12;;;;;;;6.27;1.47;;;9.50;78.90;;;;;;8374839;28;20483;-72
2021/03/13 10:24:14;;;;;;;1.73;1.20;;;9.70;77.60;;;;;;8369409;28;20483;-73
2021/03/13 10:28:25;;;;;;;3.53;1.63;;;9.90;76.80;;;;;;8354670;28;20456;-74
2021/03/13 10:32:30;;;;;;;4.27;2.07;;;10.10;75.60;;;;;;8384175;28;20452;-75
2021/03/13 10:36:45;;;;;;;9.83;2.03;;;10.40;73.10;;;;;;8365944;28;20434;-73
2021/03/13 10:40:54;;;;;;;4.37;1.70;;;10.90;71.60;;;;;;8386312;28;20440;-73
2021/03/13 10:44:55;;;;;;;6.73;2.10;;;11.20;69.20;;;;;;8366351;28;20911;-74
2021/03/13 10:49:06;;;;;;;7.33;3.00;;;11.70;69.20;;;;;;8392073;28;20431;-74
2021/03/13 10:53:27;;;;;;;12.50;3.40;;;12.10;67.20;;;;;;8373815;28;20430;-73
2021/03/13 10:57:28;;;;;;;9.73;3.40;;;12.60;66.00;;;;;;8392747;28;20512;-75
2021/03/13 11:01:28;;;;;;;4.57;2.37;;;13.10;64.40;;;;;;8377053;28;20777;-73
2021/03/13 11:05:32;;;;;;;12.23;2.50;;;13.40;62.10;;;;;;8359605;28;20227;-74
2021/03/13 11:09:33;;;;;;;11.73;1.53;;;13.20;61.80;;;;;;8378602;28;20662;-74
2021/03/13 11:13:34;;;;;;;4.00;1.83;;;13.10;62.70;;;;;;8371998;28;20472;-74
2021/03/13 11:17:34;;;;;;;10.63;2.23;;;13.20;61.30;;;;;;8373103;28;20436;-74
2021/03/13 11:21:35;;;;;;;3.73;1.63;;;13.20;61.60;;;;;;8402106;28;20273;-74
2021/03/13 11:25:39;;;;;;;6.03;2.00;;;13.20;61.10;;;;;;8384996;28;20312;-72
2021/03/13 11:29:40;;;;;;;4.43;1.50;;;13.20;61.30;;;;;;8369899;28;20435;-74
2021/03/13 11:33:41;;;;;;;5.03;1.93;;;13.50;61.20;;;;;;8371935;28;20452;-73
2021/03/13 11:37:41;;;;;;;3.03;1.77;;;13.80;60.80;;;;;;8369869;28;20636;-73
2021/03/13 11:41:43;;;;;;;2.87;1.40;;;14.00;58.40;;;;;;8367734;28;20325;-74
2021/03/13 11:45:43;;;;;;;6.27;1.77;;;14.20;58.70;;;;;;8363542;28;20214;-74
2021/03/13 11:49:44;;;;;;;7.97;2.67;;;14.50;57.90;;;;;;8372306;28;20493;-73
2021/03/13 11:53:45;;;;;;;7.23;2.17;;;14.50;57.50;;;;;;8371869;28;20194;-74
2021/03/13 11:57:50;;;;;;;5.80;2.13;;;14.50;58.70;;;;;;8366436;28;20216;-74
2021/03/13 12:01:52;;;;;;;5.03;1.83;;;14.80;57.00;;;;;;8372334;28;20441;-74
2021/03/13 12:05:53;;;;;;;8.97;2.43;;;15.10;56.90;;;;;;8384760;28;20478;-74
2021/03/13 12:09:57;;;;;;;6.07;2.27;;;15.40;56.30;;;;;;8371462;28;20475;-74
2021/03/13 12:13:58;;;;;;;10.87;3.83;;;15.50;56.20;;;;;;8377019;28;20646;-73
2021/03/13 12:17:59;;;;;;;8.87;1.80;;;15.60;54.40;;;;;;8375360;28;20812;-75
2021/03/13 12:22:00;;;;;;;11.63;2.23;;;15.40;54.10;;;;;;8376818;28;20198;-74
2021/03/13 12:26:01;;;;;;;6.20;2.97;;;15.10;54.10;;;;;;8362922;28;20299;-74
2021/03/13 12:30:02;;;;;;;8.33;2.23;;;14.80;55.50;;;;;;8374281;28;20494;-74
2021/03/13 12:34:03;;;;;;;6.60;2.07;;;14.70;54.20;;;;;;8373619;28;20657;-73
2021/03/13 12:38:04;;;;;;;3.03;1.47;;;14.70;56.20;;;;;;8379486;28;20443;-75
2021/03/13 12:42:11;;;;;;;8.20;3.23;;;15.00;55.30;;;;;;8378533;28;20483;-75
2021/03/13 12:46:17;;;;;;;6.57;2.30;;;15.20;53.70;;;;;;8411886;28;20645;-74
2021/03/13 12:50:18;;;;;;;4.40;1.97;;;15.30;54.30;;;;;;8377699;28;20444;-75
2021/03/13 12:54:18;;;;;;;7.93;3.20;;;15.30;53.80;;;;;;8374070;28;20501;-75
2021/03/13 12:58:23;;;;;;;4.80;2.43;;;15.50;52.60;;;;;;8361794;28;20224;-74
2021/03/13 13:02:24;;;;;;;12.83;2.37;;;15.50;52.80;;;;;;8378768;28;20198;-73
2021/03/13 13:06:28;;;;;;;10.67;3.37;;;15.40;52.00;;;;;;8378338;28;20450;-75
2021/03/13 13:10:36;;;;;;;5.73;2.27;;;15.50;52.80;;;;;;8369924;28;20274;-74
2021/03/13 13:14:39;;;;;;;5.57;1.57;;;15.60;51.50;;;;;;8376220;28;20479;-76
2021/03/13 13:18:44;;;;;;;7.63;1.57;;;15.40;50.60;;;;;;8379996;28;20529;-75
2021/03/13 13:22:45;;;;;;;5.60;2.03;;;15.20;51.70;;;;;;8381327;28;20470;-74
2021/03/13 13:26:53;;;;;;;6.00;1.93;;;15.20;52.40;;;;;;8374300;28;20441;-74
2021/03/13 13:30:54;;;;;;;3.53;1.53;;;15.30;52.00;;;;;;8379013;28;20190;-74
2021/03/13 13:34:55;;;;;;;9.53;2.10;;;15.50;52.40;;;;;;8378931;28;20500;-73
2021/03/13 13:39:05;;;;;;;10.27;2.27;;;15.60;51.40;;;;;;8377556;28;20200;-75
2021/03/13 13:43:08;;;;;;;4.00;2.13;;;15.50;50.50;;;;;;8394479;28;20201;-73
2021/03/13 13:47:09;;;;;;;1.93;1.83;;;15.20;51.80;;;;;;8371622;28;20451;-74
2021/03/13 13:51:10;;;;;;;15.33;5.53;;;14.90;52.80;;;;;;8396519;28;20510;-75
2021/03/13 13:55:13;;;;;;;4.07;1.80;;;14.40;53.00;;;;;;8381227;28;20221;-73
2021/03/13 13:59:17;;;;;;;2.57;1.07;;;13.80;57.90;;;;;;8379043;28;20206;-76
2021/03/13 14:03:25;;;;;;;5.13;1.47;;;11.20;66.00;;;;;;8364815;28;20467;-75
2021/03/13 14:07:26;;;;;;;3.77;1.17;;;9.10;75.00;;;;;;8377616;28;20439;-75
2021/03/13 14:11:27;;;;;;;4.77;1.10;;;8.30;82.20;;;;;;8373714;28;20439;-75
2021/03/13 14:15:28;;;;;;;1.20;1.10;;;8.40;85.00;;;;;;8373073;28;20442;-75
2021/03/13 14:19:29;;;;;;;5.03;1.03;;;8.80;86.00;;;;;;8372574;28;20220;-74
2021/03/13 14:23:29;;;;;;;1.83;1.70;;;9.20;84.80;;;;;;8373602;28;20544;-74
2021/03/13 14:27:30;;;;;;;4.67;1.10;;;9.70;84.10;;;;;;8372787;28;20621;-75
2021/03/13 14:31:31;;;;;;;2.80;1.50;;;10.10;82.80;;;;;;8372643;28;20205;-74
2021/03/13 14:35:32;;;;;;;4.50;2.00;;;10.50;81.40;;;;;;8371911;28;20205;-74
2021/03/13 14:39:33;;;;;;;9.37;2.90;;;10.90;76.00;;;;;;8371883;28;20188;-75
2021/03/13 14:43:37;;;;;;;4.57;2.00;;;11.30;71.30;;;;;;8365782;28;20222;-75
2021/03/13 14:47:41;;;;;;;6.40;1.87;;;11.60;70.70;;;;;;8375502;28;20447;-76
2021/03/13 14:51:45;;;;;;;10.67;2.97;;;11.90;71.40;;;;;;8368800;28;20516;-74
2021/03/13 14:55:48;;;;;;;6.83;2.10;;;12.10;69.60;;;;;;8361004;28;20456;-76
2021/03/13 14:59:49;;;;;;;5.97;2.33;;;12.40;69.20;;;;;;8387188;28;20467;-74
2021/03/13 15:03:56;;;;;;;3.80;1.93;;;12.30;67.60;;;;;;8377907;28;20497;-74
2021/03/13 15:08:04;;;;;;;3.57;1.93;;;12.10;67.20;;;;;;8372858;28;20627;-75
2021/03/13 15:12:05;;;;;;;5.70;2.13;;;12.10;69.30;;;;;;8376192;28;20440;-75
2021/03/13 15:16:07;;;;;;;7.90;4.07;;;12.30;64.90;;;;;;8382936;28;20778;-73
2021/03/13 15:20:15;;;;;;;7.57;3.80;;;12.20;64.50;;;;;;8372451;28;20518;-74
2021/03/13 15:24:15;;;;;;;11.77;3.20;;;12.00;64.30;;;;;;8354332;28;20476;-73
2021/03/13 15:28:29;;;;;;;9.83;2.63;;;12.00;64.40;;;;;;8378910;28;20486;-74
2021/03/13 15:32:30;;;;;;;7.97;1.67;;;12.10;64.90;;;;;;8358387;28;20189;-75
2021/03/13 15:36:31;;;;;;;6.10;2.23;;;12.30;64.00;;;;;;8376839;28;20451;-75
2021/03/13 15:40:32;;;;;;;4.03;1.90;;;12.10;64.50;;;;;;8367349;28;20213;-74
2021/03/13 15:44:32;;;;;;;19.43;2.60;;;11.90;64.70;;;;;;8371259;28;20551;-74
2021/03/13 15:48:35;;;;;;;6.93;2.37;;;12.00;64.90;;;;;;8401269;28;20185;-74
2021/03/13 15:52:37;;;;;;;9.90;2.30;;;12.10;65.20;;;;;;8384631;28;20205;-76
2021/03/13 15:56:38;;;;;;;10.93;2.97;;;12.10;64.00;;;;;;8369599;28;21027;-75
2021/03/13 16:00:43;;;;;;;7.43;2.10;;;12.10;63.50;;;;;;8363900;28;20444;-74
2021/03/13 16:04:47;;;;;;;5.83;1.90;;;11.80;64.00;;;;;;8375359;28;21051;-73
2021/03/13 16:08:48;;;;;;;2.77;1.80;;;11.50;64.20;;;;;;8374561;28;20460;-75
2021/03/13 16:12:49;;;;;;;6.27;3.40;;;11.20;64.90;;;;;;8369354;28;20444;-73
2021/03/13 16:17:01;;;;;;;5.40;1.67;;;11.10;66.30;;;;;;8380304;28;20463;-75
2021/03/13 16:21:05;;;;;;;3.83;1.80;;;11.00;67.00;;;;;;8365232;28;20444;-74
2021/03/13 16:25:07;;;;;;;5.23;1.63;;;10.90;67.20;;;;;;8372032;28;20520;-73
2021/03/13 16:29:08;;;;;;;7.13;2.00;;;10.90;66.90;;;;;;8356195;28;20809;-76
2021/03/13 16:33:15;;;;;;;6.97;1.50;;;11.10;65.50;;;;;;8356070;28;20853;-74
2021/03/13 16:37:18;;;;;;;3.40;1.73;;;11.30;65.40;;;;;;8373620;28;20467;-73
2021/03/13 16:41:21;;;;;;;3.93;2.03;;;11.30;64.70;;;;;;8398745;28;20834;-73
2021/03/13 16:45:25;;;;;;;8.73;1.83;;;11.30;64.10;;;;;;8382456;28;20463;-75
2021/03/13 16:49:29;;;;;;;5.90;1.70;;;11.00;63.90;;;;;;8391782;28;20559;-76
2021/03/13 16:53:30;;;;;;;5.23;1.80;;;10.80;64.90;;;;;;8347214;28;20203;-76
2021/03/13 16:57:30;;;;;;;3.17;1.50;;;10.60;65.50;;;;;;8366566;28;20472;-75
2021/03/13 17:01:37;;;;;;;5.67;1.90;;;10.40;66.40;;;;;;8371372;28;20266;-74
2021/03/13 17:05:38;;;;;;;8.17;2.70;;;10.30;66.80;;;;;;8364375;28;20588;-74
2021/03/13 17:09:42;;;;;;;5.23;1.50;;;10.20;66.80;;;;;;8366078;28;20463;-72
2021/03/13 17:13:43;;;;;;;2.30;1.90;;;10.10;67.60;;;;;;8365861;28;20741;-73
2021/03/13 17:17:44;;;;;;;6.63;2.40;;;10.00;68.10;;;;;;8365008;28;20447;-74
2021/03/13 17:21:48;;;;;;;12.47;2.30;;;9.80;68.60;;;;;;8367996;28;20494;-74
2021/03/13 17:25:49;;;;;;;5.80;3.30;;;9.70;68.80;;;;;;8389665;28;20478;-75
2021/03/13 17:29:52;;;;;;;7.70;2.73;;;9.60;68.80;;;;;;8350770;28;20474;-75
2021/03/13 17:33:54;;;;;;;7.33;1.63;;;9.50;69.30;;;;;;8347588;28;20202;-74
2021/03/13 17:37:55;;;;;;;4.80;1.90;;;9.40;68.80;;;;;;8367508;28;20443;-74
2021/03/13 17:41:56;;;;;;;4.63;2.07;;;9.30;68.30;;;;;;8368886;28;20458;-74
2021/03/13 17:46:01;;;;;;;2.93;1.60;;;9.40;68.70;;;;;;8349525;28;20219;-76
2021/03/13 17:50:05;;;;;;;3.53;1.23;;;9.30;69.20;;;;;;8369568;28;20446;-73
2021/03/13 17:54:09;;;;;;;9.90;1.90;;;9.20;69.80;;;;;;8372417;28;20945;-74
2021/03/13 17:58:14;;;;;;;3.20;1.90;;;9.10;70.50;;;;;;8375237;28;20963;-74
2021/03/13 18:02:22;;;;;;;4.80;2.47;;;9.00;71.10;;;;;;8361614;28;20335;-74
2021/03/13 18:06:23;;;;;;;8.30;2.20;;;8.80;71.40;;;;;;8373519;28;20454;-76
2021/03/13 18:10:25;;;;;;;11.43;3.30;;;8.70;71.60;;;;;;8347496;28;20550;-74
2021/03/13 18:14:27;;;;;;;11.93;3.17;;;8.80;72.00;;;;;;8349895;28;20474;-73
2021/03/13 18:18:36;;;;;;;9.40;3.73;;;8.70;72.00;;;;;;8391409;28;20528;-73
2021/03/13 18:22:40;;;;;;;9.90;3.47;;;8.70;72.30;;;;;;8377694;28;20959;-75
2021/03/13 18:26:42;;;;;;;8.37;4.93;;;8.70;72.10;;;;;;8377181;28;20799;-73
2021/03/13 18:30:44;;;;;;;4.73;2.40;;;8.80;71.50;;;;;;8380683;28;20455;-76
2021/03/13 18:34:44;;;;;;;10.33;3.83;;;8.90;71.20;;;;;;8381696;28;20441;-74
2021/03/13 18:38:53;;;;;;;4.70;2.20;;;9.10;70.70;;;;;;8376174;28;20555;-75
2021/03/13 18:42:55;;;;;;;5.70;2.03;;;9.10;71.00;;;;;;8374029;28;20221;-73
2021/03/13 18:47:04;;;;;;;12.90;2.60;;;9.10;71.50;;;;;;8395376;28;20431;-74
2021/03/13 18:51:10;;;;;;;12.10;2.00;;;9.00;71.80;;;;;;8381912;28;20504;-74
2021/03/13 18:55:15;;;;;;;9.63;2.63;;;8.90;72.10;;;;;;8348491;28;20452;-74
2021/03/13 18:59:22;;;;;;;5.57;1.80;;;8.90;72.20;;;;;;8366217;28;20450;-74
2021/03/13 19:03:25;;;;;;;6.40;3.33;;;8.80;72.70;;;;;;8370131;28;20492;-74
2021/03/13 19:07:28;;;;;;;19.40;2.77;;;8.80;72.90;;;;;;8347651;28;20458;-74
2021/03/13 19:11:37;;;;;;;4.03;1.60;;;8.70;73.00;;;;;;8380353;28;20444;-75
2021/03/13 19:15:44;;;;;;;8.20;4.00;;;8.70;73.10;;;;;;8378752;28;20492;-73
2021/03/13 19:19:49;;;;;;;40.63;13.13;;;8.70;72.90;;;;;;8375756;28;20445;-72
2021/03/13 19:24:06;;;;;;;10.17;3.00;;;8.70;73.20;;;;;;8369631;28;20470;-73
2021/03/13 19:28:07;;;;;;;11.70;5.50;;;8.70;73.40;;;;;;8363339;28;20444;-73
2021/03/13 19:32:08;;;;;;;13.23;3.80;;;8.70;73.20;;;;;;8379600;28;20449;-73
2021/03/13 19:36:12;;;;;;;9.63;3.83;;;8.70;73.10;;;;;;8342188;28;20189;-72
2021/03/13 19:40:13;;;;;;;7.20;2.80;;;8.70;72.80;;;;;;8352758;28;20250;-73
2021/03/13 19:44:23;;;;;;;10.40;3.07;;;8.70;73.20;;;;;;8385153;28;20514;-73
2021/03/13 19:48:24;;;;;;;25.27;2.20;;;8.50;73.70;;;;;;8370978;28;20480;-73
2021/03/13 19:52:25;;;;;;;5.50;2.57;;;8.50;73.70;;;;;;8370263;28;20457;-72
2021/03/13 19:56:26;;;;;;;11.33;3.23;;;8.40;74.10;;;;;;8354388;28;20462;-73
2021/03/13 20:00:27;;;;;;;4.90;1.77;;;8.40;74.40;;;;;;8344908;28;20524;-73
2021/03/13 20:04:35;;;;;;;11.37;3.17;;;8.30;74.50;;;;;;8366867;28;20755;-74
2021/03/13 20:08:43;;;;;;;3.43;2.23;;;8.30;74.50;;;;;;8402034;28;20527;-72
2021/03/13 20:12:43;;;;;;;13.30;2.70;;;8.20;74.50;;;;;;8364403;28;20477;-73
2021/03/13 20:16:44;;;;;;;11.33;2.27;;;8.20;74.60;;;;;;8342119;28;20452;-72
2021/03/13 20:20:46;;;;;;;14.77;2.67;;;8.20;74.70;;;;;;8383297;28;20190;-72
2021/03/13 20:24:48;;;;;;;11.83;2.63;;;8.20;75.10;;;;;;8366547;28;20575;-72
2021/03/13 20:28:49;;;;;;;4.20;2.30;;;8.20;74.60;;;;;;8372804;28;20479;-72
2021/03/13 20:32:56;;;;;;;5.40;2.67;;;8.20;74.90;;;;;;8375958;28;21631;-72
2021/03/13 20:37:03;;;;;;;13.60;2.63;;;8.20;75.10;;;;;;8360861;28;20544;-73
2021/03/13 20:41:06;;;;;;;3.80;2.07;;;8.10;75.20;;;;;;8368697;28;20780;-71
2021/03/13 20:45:14;;;;;;;14.40;2.57;;;8.10;75.50;;;;;;8395115;28;20460;-73
2021/03/13 20:49:16;;;;;;;3.37;2.00;;;8.00;75.80;;;;;;8367519;28;20528;-73
2021/03/13 20:53:17;;;;;;;16.23;2.23;;;7.90;76.00;;;;;;8353754;28;21324;-73
2021/03/13 20:57:23;;;;;;;7.33;2.67;;;7.90;76.20;;;;;;8415036;28;20464;-72
2021/03/13 21:01:31;;;;;;;8.53;2.93;;;7.90;76.40;;;;;;8392138;28;20524;-74
2021/03/13 21:05:33;;;;;;;3.80;1.23;;;8.00;77.40;;;;;;8370295;28;20817;-72
2021/03/13 21:09:43;;;;;;;0.83;0.83;;;7.90;78.60;;;;;;8365123;28;20559;-71
2021/03/13 21:13:52;;;;;;;2.40;1.03;;;7.70;78.80;;;;;;8357325;28;20444;-72
2021/03/13 21:17:52;;;;;;;1.73;0.80;;;7.50;79.80;;;;;;8374785;28;20440;-74